sensor_id;sensor_type;location;lat;lon;timestamp;P1;durP1;ratioP1;P2;durP2;ratioP2
52124;SDS011;38119;52.710;6.398;2023-04-29T00:01:51;40.95;;;27.35;;
52124;SDS011;38119;52.710;6.398;2023-04-29T00:04:16;41.63;;;26.35;;
52124;SDS011;38119;52.710;6.398;2023-04-29T00:06:42;43.72;;;26.60;;
52124;SDS011;38119;52.710;6.398;2023-04-29T00:09:08;39.53;;;26.60;;
52124;SDS011;38119;52.710;6.398;2023-04-29T00:11:33;42.22;;;26.70;;
52124;SDS011;38119;52.710;6.398;2023-04-29T00:13:59;43.28;;;26.83;;
52124;SDS011;38119;52.710;6.398;2023-04-29T00:16:26;40.42;;;26.63;;
52124;SDS011;38119;52.710;6.398;2023-04-29T00:18:51;40.22;;;26.38;;
52124;SDS011;38119;52.710;6.398;2023-04-29T00:21:17;42.20;;;26.50;;
52124;SDS011;38119;52.710;6.398;2023-04-29T00:23:43;41.47;;;26.20;;
52124;SDS011;38119;52.710;6.398;2023-04-29T00:26:08;38.13;;;25.58;;
52124;SDS011;38119;52.710;6.398;2023-04-29T00:28:34;36.42;;;24.77;;
52124;SDS011;38119;52.710;6.398;2023-04-29T00:30:59;44.22;;;26.90;;
52124;SDS011;38119;52.710;6.398;2023-04-29T00:33:25;46.30;;;26.17;;
52124;SDS011;38119;52.710;6.398;2023-04-29T00:35:51;39.35;;;25.42;;
52124;SDS011;38119;52.710;6.398;2023-04-29T00:38:16;36.35;;;25.80;;
52124;SDS011;38119;52.710;6.398;2023-04-29T00:40:42;38.00;;;25.23;;
52124;SDS011;38119;52.710;6.398;2023-04-29T00:43:08;38.63;;;24.80;;
52124;SDS011;38119;52.710;6.398;2023-04-29T00:45:34;39.53;;;25.83;;
52124;SDS011;38119;52.710;6.398;2023-04-29T00:47:59;42.75;;;24.88;;
52124;SDS011;38119;52.710;6.398;2023-04-29T00:50:25;39.10;;;24.70;;
52124;SDS011;38119;52.710;6.398;2023-04-29T00:52:51;37.50;;;23.30;;
52124;SDS011;38119;52.710;6.398;2023-04-29T00:55:17;31.50;;;22.70;;
52124;SDS011;38119;52.710;6.398;2023-04-29T00:57:44;36.35;;;23.95;;
52124;SDS011;38119;52.710;6.398;2023-04-29T01:00:12;39.67;;;23.73;;
52124;SDS011;38119;52.710;6.398;2023-04-29T01:02:40;37.63;;;23.55;;
52124;SDS011;38119;52.710;6.398;2023-04-29T01:05:06;34.88;;;24.48;;
52124;SDS011;38119;52.710;6.398;2023-04-29T01:10:41;40.90;;;24.75;;
52124;SDS011;38119;52.710;6.398;2023-04-29T01:13:16;41.33;;;23.70;;
52124;SDS011;38119;52.710;6.398;2023-04-29T01:16:16;38.13;;;23.30;;
52124;SDS011;38119;52.710;6.398;2023-04-29T01:18:49;41.10;;;24.98;;
52124;SDS011;38119;52.710;6.398;2023-04-29T01:21:23;35.92;;;24.75;;
52124;SDS011;38119;52.710;6.398;2023-04-29T01:23:49;38.40;;;23.00;;
52124;SDS011;38119;52.710;6.398;2023-04-29T01:26:23;41.38;;;25.73;;
52124;SDS011;38119;52.710;6.398;2023-04-29T01:28:53;42.00;;;24.40;;
52124;SDS011;38119;52.710;6.398;2023-04-29T01:38:56;40.53;;;24.98;;
52124;SDS011;38119;52.710;6.398;2023-04-29T01:41:44;40.70;;;25.05;;
52124;SDS011;38119;52.710;6.398;2023-04-29T01:44:18;40.80;;;24.63;;
52124;SDS011;38119;52.710;6.398;2023-04-29T01:46:51;40.50;;;25.20;;
52124;SDS011;38119;52.710;6.398;2023-04-29T01:49:20;39.50;;;24.38;;
52124;SDS011;38119;52.710;6.398;2023-04-29T01:51:49;45.03;;;24.67;;
52124;SDS011;38119;52.710;6.398;2023-04-29T01:54:15;42.28;;;24.88;;
52124;SDS011;38119;52.710;6.398;2023-04-29T01:56:41;37.50;;;24.25;;
52124;SDS011;38119;52.710;6.398;2023-04-29T01:59:07;40.20;;;24.80;;
52124;SDS011;38119;52.710;6.398;2023-04-29T02:01:32;43.70;;;24.23;;
52124;SDS011;38119;52.710;6.398;2023-04-29T02:03:58;41.63;;;24.33;;
52124;SDS011;38119;52.710;6.398;2023-04-29T02:06:24;38.47;;;24.15;;
52124;SDS011;38119;52.710;6.398;2023-04-29T02:08:50;40.10;;;25.40;;
52124;SDS011;38119;52.710;6.398;2023-04-29T02:11:16;35.90;;;24.08;;
52124;SDS011;38119;52.710;6.398;2023-04-29T02:13:41;43.67;;;23.85;;
52124;SDS011;38119;52.710;6.398;2023-04-29T02:16:12;43.15;;;23.88;;
52124;SDS011;38119;52.710;6.398;2023-04-29T02:18:38;40.05;;;23.75;;
52124;SDS011;38119;52.710;6.398;2023-04-29T02:21:05;44.78;;;24.77;;
52124;SDS011;38119;52.710;6.398;2023-04-29T02:23:31;41.03;;;24.70;;
52124;SDS011;38119;52.710;6.398;2023-04-29T02:25:57;37.58;;;23.65;;
52124;SDS011;38119;52.710;6.398;2023-04-29T02:28:23;38.58;;;24.42;;
52124;SDS011;38119;52.710;6.398;2023-04-29T02:30:49;38.88;;;22.90;;
52124;SDS011;38119;52.710;6.398;2023-04-29T02:33:14;40.88;;;22.92;;
52124;SDS011;38119;52.710;6.398;2023-04-29T02:35:41;39.53;;;24.08;;
52124;SDS011;38119;52.710;6.398;2023-04-29T02:38:06;43.70;;;24.35;;
52124;SDS011;38119;52.710;6.398;2023-04-29T02:40:32;36.55;;;22.60;;
52124;SDS011;38119;52.710;6.398;2023-04-29T02:42:57;39.92;;;22.75;;
52124;SDS011;38119;52.710;6.398;2023-04-29T02:45:23;37.55;;;22.30;;
52124;SDS011;38119;52.710;6.398;2023-04-29T02:47:49;36.88;;;22.60;;
52124;SDS011;38119;52.710;6.398;2023-04-29T02:50:14;40.13;;;23.48;;
52124;SDS011;38119;52.710;6.398;2023-04-29T02:52:40;39.05;;;22.15;;
52124;SDS011;38119;52.710;6.398;2023-04-29T02:55:06;37.13;;;22.15;;
52124;SDS011;38119;52.710;6.398;2023-04-29T02:57:32;37.80;;;21.70;;
52124;SDS011;38119;52.710;6.398;2023-04-29T02:59:58;38.22;;;21.98;;
52124;SDS011;38119;52.710;6.398;2023-04-29T03:02:24;38.20;;;21.92;;
52124;SDS011;38119;52.710;6.398;2023-04-29T03:04:50;35.05;;;21.98;;
52124;SDS011;38119;52.710;6.398;2023-04-29T03:07:16;36.00;;;21.13;;
52124;SDS011;38119;52.710;6.398;2023-04-29T03:09:42;38.67;;;21.63;;
52124;SDS011;38119;52.710;6.398;2023-04-29T03:12:07;37.05;;;21.92;;
52124;SDS011;38119;52.710;6.398;2023-04-29T03:14:33;36.83;;;20.98;;
52124;SDS011;38119;52.710;6.398;2023-04-29T03:17:00;36.28;;;20.75;;
52124;SDS011;38119;52.710;6.398;2023-04-29T03:19:25;38.47;;;22.10;;
52124;SDS011;38119;52.710;6.398;2023-04-29T03:21:51;37.53;;;21.30;;
52124;SDS011;38119;52.710;6.398;2023-04-29T03:24:17;40.47;;;22.27;;
52124;SDS011;38119;52.710;6.398;2023-04-29T03:26:42;36.67;;;21.00;;
52124;SDS011;38119;52.710;6.398;2023-04-29T03:29:08;34.72;;;20.15;;
52124;SDS011;38119;52.710;6.398;2023-04-29T03:31:33;35.60;;;20.50;;
52124;SDS011;38119;52.710;6.398;2023-04-29T03:33:59;37.10;;;20.98;;
52124;SDS011;38119;52.710;6.398;2023-04-29T03:36:25;36.95;;;19.77;;
52124;SDS011;38119;52.710;6.398;2023-04-29T03:38:50;33.55;;;20.02;;
52124;SDS011;38119;52.710;6.398;2023-04-29T03:41:16;33.28;;;20.08;;
52124;SDS011;38119;52.710;6.398;2023-04-29T03:43:42;33.67;;;19.95;;
52124;SDS011;38119;52.710;6.398;2023-04-29T03:46:08;33.20;;;20.05;;
52124;SDS011;38119;52.710;6.398;2023-04-29T03:48:34;31.80;;;20.33;;
52124;SDS011;38119;52.710;6.398;2023-04-29T03:51:00;35.25;;;20.15;;
52124;SDS011;38119;52.710;6.398;2023-04-29T03:53:26;32.85;;;19.95;;
52124;SDS011;38119;52.710;6.398;2023-04-29T03:55:52;34.42;;;19.70;;
52124;SDS011;38119;52.710;6.398;2023-04-29T03:58:17;30.40;;;19.48;;
52124;SDS011;38119;52.710;6.398;2023-04-29T04:00:43;31.60;;;19.10;;
52124;SDS011;38119;52.710;6.398;2023-04-29T04:03:08;30.13;;;18.90;;
52124;SDS011;38119;52.710;6.398;2023-04-29T04:05:34;34.60;;;19.60;;
52124;SDS011;38119;52.710;6.398;2023-04-29T04:08:00;31.55;;;19.77;;
52124;SDS011;38119;52.710;6.398;2023-04-29T04:10:25;34.75;;;19.83;;
52124;SDS011;38119;52.710;6.398;2023-04-29T04:12:52;33.47;;;19.08;;
52124;SDS011;38119;52.710;6.398;2023-04-29T04:15:18;32.10;;;18.55;;
52124;SDS011;38119;52.710;6.398;2023-04-29T04:17:43;31.92;;;19.23;;
52124;SDS011;38119;52.710;6.398;2023-04-29T04:20:09;38.42;;;19.85;;
52124;SDS011;38119;52.710;6.398;2023-04-29T04:22:35;30.60;;;19.17;;
52124;SDS011;38119;52.710;6.398;2023-04-29T04:25:02;35.70;;;20.85;;
52124;SDS011;38119;52.710;6.398;2023-04-29T04:27:28;31.45;;;19.05;;
52124;SDS011;38119;52.710;6.398;2023-04-29T04:29:54;35.45;;;20.30;;
52124;SDS011;38119;52.710;6.398;2023-04-29T04:32:20;34.15;;;21.50;;
52124;SDS011;38119;52.710;6.398;2023-04-29T04:34:47;29.25;;;18.95;;
52124;SDS011;38119;52.710;6.398;2023-04-29T04:37:13;36.45;;;20.15;;
52124;SDS011;38119;52.710;6.398;2023-04-29T04:39:39;32.47;;;19.25;;
52124;SDS011;38119;52.710;6.398;2023-04-29T04:42:04;33.05;;;18.98;;
52124;SDS011;38119;52.710;6.398;2023-04-29T04:44:31;33.92;;;18.75;;
52124;SDS011;38119;52.710;6.398;2023-04-29T04:46:57;31.00;;;18.67;;
52124;SDS011;38119;52.710;6.398;2023-04-29T04:49:25;32.58;;;19.05;;
52124;SDS011;38119;52.710;6.398;2023-04-29T04:51:51;30.88;;;19.30;;
52124;SDS011;38119;52.710;6.398;2023-04-29T04:54:17;33.13;;;19.52;;
52124;SDS011;38119;52.710;6.398;2023-04-29T04:56:43;36.15;;;18.77;;
52124;SDS011;38119;52.710;6.398;2023-04-29T04:59:08;32.42;;;19.25;;
52124;SDS011;38119;52.710;6.398;2023-04-29T05:01:34;32.95;;;19.23;;
52124;SDS011;38119;52.710;6.398;2023-04-29T05:04:00;30.83;;;18.08;;
52124;SDS011;38119;52.710;6.398;2023-04-29T05:06:26;34.53;;;17.65;;
52124;SDS011;38119;52.710;6.398;2023-04-29T05:08:52;29.40;;;17.90;;
52124;SDS011;38119;52.710;6.398;2023-04-29T05:11:18;31.98;;;17.45;;
52124;SDS011;38119;52.710;6.398;2023-04-29T05:13:45;27.45;;;16.42;;
52124;SDS011;38119;52.710;6.398;2023-04-29T05:16:11;33.13;;;17.73;;
52124;SDS011;38119;52.710;6.398;2023-04-29T05:18:37;31.40;;;16.45;;
52124;SDS011;38119;52.710;6.398;2023-04-29T05:21:02;33.95;;;16.73;;
52124;SDS011;38119;52.710;6.398;2023-04-29T05:23:28;26.85;;;16.77;;
52124;SDS011;38119;52.710;6.398;2023-04-29T05:25:54;27.80;;;17.85;;
52124;SDS011;38119;52.710;6.398;2023-04-29T05:28:19;28.40;;;16.85;;
52124;SDS011;38119;52.710;6.398;2023-04-29T05:30:45;30.70;;;16.63;;
52124;SDS011;38119;52.710;6.398;2023-04-29T05:33:11;32.35;;;16.80;;
52124;SDS011;38119;52.710;6.398;2023-04-29T05:35:37;31.17;;;17.15;;
52124;SDS011;38119;52.710;6.398;2023-04-29T05:38:02;33.13;;;16.75;;
52124;SDS011;38119;52.710;6.398;2023-04-29T05:40:28;28.58;;;16.77;;
52124;SDS011;38119;52.710;6.398;2023-04-29T05:42:54;30.45;;;16.30;;
52124;SDS011;38119;52.710;6.398;2023-04-29T05:45:19;28.88;;;16.23;;
52124;SDS011;38119;52.710;6.398;2023-04-29T05:47:45;30.80;;;17.05;;
52124;SDS011;38119;52.710;6.398;2023-04-29T05:50:11;33.17;;;16.60;;
52124;SDS011;38119;52.710;6.398;2023-04-29T05:52:36;25.70;;;15.23;;
52124;SDS011;38119;52.710;6.398;2023-04-29T05:55:02;27.08;;;15.07;;
52124;SDS011;38119;52.710;6.398;2023-04-29T05:57:28;28.65;;;15.73;;
52124;SDS011;38119;52.710;6.398;2023-04-29T05:59:54;26.02;;;15.27;;
52124;SDS011;38119;52.710;6.398;2023-04-29T06:02:24;25.27;;;15.20;;
52124;SDS011;38119;52.710;6.398;2023-04-29T06:04:50;26.67;;;14.55;;
52124;SDS011;38119;52.710;6.398;2023-04-29T06:07:15;27.20;;;13.90;;
52124;SDS011;38119;52.710;6.398;2023-04-29T06:09:42;30.67;;;14.98;;
52124;SDS011;38119;52.710;6.398;2023-04-29T06:12:08;24.23;;;13.80;;
52124;SDS011;38119;52.710;6.398;2023-04-29T06:14:34;24.40;;;13.77;;
52124;SDS011;38119;52.710;6.398;2023-04-29T06:17:00;23.35;;;13.07;;
52124;SDS011;38119;52.710;6.398;2023-04-29T06:19:26;29.90;;;14.40;;
52124;SDS011;38119;52.710;6.398;2023-04-29T06:21:52;24.65;;;13.20;;
52124;SDS011;38119;52.710;6.398;2023-04-29T06:24:17;20.67;;;13.43;;
52124;SDS011;38119;52.710;6.398;2023-04-29T06:26:43;18.90;;;11.48;;
52124;SDS011;38119;52.710;6.398;2023-04-29T06:29:08;26.80;;;12.10;;
52124;SDS011;38119;52.710;6.398;2023-04-29T06:31:34;21.45;;;12.45;;
52124;SDS011;38119;52.710;6.398;2023-04-29T06:33:59;25.05;;;12.77;;
52124;SDS011;38119;52.710;6.398;2023-04-29T06:36:25;21.67;;;11.70;;
52124;SDS011;38119;52.710;6.398;2023-04-29T06:38:51;22.80;;;12.02;;
52124;SDS011;38119;52.710;6.398;2023-04-29T06:41:17;21.98;;;11.98;;
52124;SDS011;38119;52.710;6.398;2023-04-29T06:43:42;24.00;;;11.50;;
52124;SDS011;38119;52.710;6.398;2023-04-29T06:46:08;22.48;;;11.88;;
52124;SDS011;38119;52.710;6.398;2023-04-29T06:48:34;18.23;;;10.75;;
52124;SDS011;38119;52.710;6.398;2023-04-29T06:51:00;21.92;;;11.45;;
52124;SDS011;38119;52.710;6.398;2023-04-29T06:53:26;20.23;;;11.88;;
52124;SDS011;38119;52.710;6.398;2023-04-29T06:55:51;17.20;;;11.07;;
52124;SDS011;38119;52.710;6.398;2023-04-29T06:58:17;20.23;;;11.40;;
52124;SDS011;38119;52.710;6.398;2023-04-29T07:00:44;19.23;;;10.98;;
52124;SDS011;38119;52.710;6.398;2023-04-29T07:03:10;20.40;;;11.70;;
52124;SDS011;38119;52.710;6.398;2023-04-29T07:05:36;18.20;;;11.18;;
52124;SDS011;38119;52.710;6.398;2023-04-29T07:08:06;24.08;;;11.82;;
52124;SDS011;38119;52.710;6.398;2023-04-29T07:10:33;18.15;;;10.82;;
52124;SDS011;38119;52.710;6.398;2023-04-29T07:12:58;21.10;;;10.85;;
52124;SDS011;38119;52.710;6.398;2023-04-29T07:15:24;17.25;;;10.65;;
52124;SDS011;38119;52.710;6.398;2023-04-29T07:17:51;20.17;;;11.27;;
52124;SDS011;38119;52.710;6.398;2023-04-29T07:20:17;16.63;;;10.43;;
52124;SDS011;38119;52.710;6.398;2023-04-29T07:22:43;17.48;;;10.68;;
52124;SDS011;38119;52.710;6.398;2023-04-29T07:25:09;18.38;;;10.18;;
52124;SDS011;38119;52.710;6.398;2023-04-29T07:27:35;17.98;;;10.60;;
52124;SDS011;38119;52.710;6.398;2023-04-29T07:30:01;17.75;;;10.60;;
52124;SDS011;38119;52.710;6.398;2023-04-29T07:32:31;19.13;;;10.18;;
52124;SDS011;38119;52.710;6.398;2023-04-29T07:34:57;18.27;;;10.52;;
52124;SDS011;38119;52.710;6.398;2023-04-29T07:37:23;13.68;;;9.15;;
52124;SDS011;38119;52.710;6.398;2023-04-29T07:39:49;19.02;;;10.40;;
52124;SDS011;38119;52.710;6.398;2023-04-29T07:42:15;15.05;;;9.65;;
52124;SDS011;38119;52.710;6.398;2023-04-29T07:44:40;16.48;;;9.75;;
52124;SDS011;38119;52.710;6.398;2023-04-29T07:47:06;17.70;;;9.75;;
52124;SDS011;38119;52.710;6.398;2023-04-29T07:49:31;17.52;;;9.98;;
52124;SDS011;38119;52.710;6.398;2023-04-29T07:51:57;15.68;;;9.35;;
52124;SDS011;38119;52.710;6.398;2023-04-29T07:54:22;17.10;;;10.02;;
52124;SDS011;38119;52.710;6.398;2023-04-29T07:56:48;15.27;;;9.40;;
52124;SDS011;38119;52.710;6.398;2023-04-29T07:59:14;16.58;;;9.60;;
52124;SDS011;38119;52.710;6.398;2023-04-29T08:01:40;16.40;;;9.73;;
52124;SDS011;38119;52.710;6.398;2023-04-29T08:04:06;16.05;;;9.70;;
52124;SDS011;38119;52.710;6.398;2023-04-29T08:06:32;16.60;;;9.40;;
52124;SDS011;38119;52.710;6.398;2023-04-29T08:08:58;18.95;;;9.60;;
52124;SDS011;38119;52.710;6.398;2023-04-29T08:11:23;16.92;;;9.95;;
52124;SDS011;38119;52.710;6.398;2023-04-29T08:13:50;18.67;;;10.02;;
52124;SDS011;38119;52.710;6.398;2023-04-29T08:16:16;17.98;;;9.93;;
52124;SDS011;38119;52.710;6.398;2023-04-29T08:18:42;18.70;;;9.63;;
52124;SDS011;38119;52.710;6.398;2023-04-29T08:21:07;16.08;;;9.95;;
52124;SDS011;38119;52.710;6.398;2023-04-29T08:23:35;16.02;;;9.40;;
52124;SDS011;38119;52.710;6.398;2023-04-29T08:26:01;17.17;;;9.45;;
52124;SDS011;38119;52.710;6.398;2023-04-29T08:28:27;15.60;;;8.93;;
52124;SDS011;38119;52.710;6.398;2023-04-29T08:30:53;13.93;;;8.95;;
52124;SDS011;38119;52.710;6.398;2023-04-29T08:33:19;18.13;;;9.05;;
52124;SDS011;38119;52.710;6.398;2023-04-29T08:35:46;17.80;;;9.40;;
52124;SDS011;38119;52.710;6.398;2023-04-29T08:38:11;16.13;;;8.73;;
52124;SDS011;38119;52.710;6.398;2023-04-29T08:40:41;15.30;;;9.38;;
52124;SDS011;38119;52.710;6.398;2023-04-29T08:45:36;14.43;;;8.70;;
52124;SDS011;38119;52.710;6.398;2023-04-29T08:48:02;13.82;;;9.00;;
52124;SDS011;38119;52.710;6.398;2023-04-29T08:50:28;14.13;;;9.15;;
52124;SDS011;38119;52.710;6.398;2023-04-29T08:52:55;13.43;;;8.73;;
52124;SDS011;38119;52.710;6.398;2023-04-29T08:55:21;16.00;;;9.57;;
52124;SDS011;38119;52.710;6.398;2023-04-29T08:57:48;14.85;;;8.50;;
52124;SDS011;38119;52.710;6.398;2023-04-29T09:00:14;11.70;;;7.95;;
52124;SDS011;38119;52.710;6.398;2023-04-29T09:02:45;12.63;;;7.88;;
52124;SDS011;38119;52.710;6.398;2023-04-29T09:05:14;11.63;;;7.93;;
52124;SDS011;38119;52.710;6.398;2023-04-29T09:07:40;12.05;;;7.88;;
52124;SDS011;38119;52.710;6.398;2023-04-29T09:10:06;15.63;;;8.02;;
52124;SDS011;38119;52.710;6.398;2023-04-29T09:12:32;12.73;;;7.40;;
52124;SDS011;38119;52.710;6.398;2023-04-29T09:14:58;10.70;;;7.35;;
52124;SDS011;38119;52.710;6.398;2023-04-29T09:20:31;11.95;;;6.95;;
52124;SDS011;38119;52.710;6.398;2023-04-29T09:22:56;13.48;;;7.38;;
52124;SDS011;38119;52.710;6.398;2023-04-29T09:25:23;13.68;;;7.57;;
52124;SDS011;38119;52.710;6.398;2023-04-29T09:27:50;10.77;;;6.70;;
52124;SDS011;38119;52.710;6.398;2023-04-29T09:30:16;10.48;;;7.28;;
52124;SDS011;38119;52.710;6.398;2023-04-29T09:32:41;12.55;;;7.15;;
52124;SDS011;38119;52.710;6.398;2023-04-29T09:37:51;12.95;;;6.80;;
52124;SDS011;38119;52.710;6.398;2023-04-29T09:40:29;10.38;;;5.47;;
52124;SDS011;38119;52.710;6.398;2023-04-29T09:42:56;8.57;;;6.25;;
52124;SDS011;38119;52.710;6.398;2023-04-29T09:45:39;8.93;;;6.43;;
52124;SDS011;38119;52.710;6.398;2023-04-29T09:48:06;9.60;;;6.22;;
52124;SDS011;38119;52.710;6.398;2023-04-29T09:50:34;10.10;;;6.22;;
52124;SDS011;38119;52.710;6.398;2023-04-29T09:53:06;11.13;;;6.55;;
52124;SDS011;38119;52.710;6.398;2023-04-29T09:55:34;10.07;;;6.30;;
52124;SDS011;38119;52.710;6.398;2023-04-29T09:58:00;9.88;;;6.20;;
52124;SDS011;38119;52.710;6.398;2023-04-29T10:00:28;7.60;;;5.80;;
52124;SDS011;38119;52.710;6.398;2023-04-29T10:02:57;10.13;;;5.63;;
52124;SDS011;38119;52.710;6.398;2023-04-29T10:05:26;10.32;;;5.80;;
52124;SDS011;38119;52.710;6.398;2023-04-29T10:07:53;9.63;;;5.90;;
52124;SDS011;38119;52.710;6.398;2023-04-29T10:10:20;7.70;;;5.25;;
52124;SDS011;38119;52.710;6.398;2023-04-29T10:12:48;9.00;;;5.60;;
52124;SDS011;38119;52.710;6.398;2023-04-29T10:15:38;9.13;;;6.13;;
52124;SDS011;38119;52.710;6.398;2023-04-29T10:18:20;11.45;;;5.82;;
52124;SDS011;38119;52.710;6.398;2023-04-29T10:20:50;9.90;;;5.55;;
52124;SDS011;38119;52.710;6.398;2023-04-29T10:23:17;9.80;;;5.45;;
52124;SDS011;38119;52.710;6.398;2023-04-29T10:25:45;11.23;;;5.80;;
52124;SDS011;38119;52.710;6.398;2023-04-29T10:28:13;8.13;;;5.53;;
52124;SDS011;38119;52.710;6.398;2023-04-29T10:30:44;8.63;;;5.07;;
52124;SDS011;38119;52.710;6.398;2023-04-29T10:33:11;14.02;;;5.85;;
52124;SDS011;38119;52.710;6.398;2023-04-29T10:35:40;12.52;;;5.82;;
52124;SDS011;38119;52.710;6.398;2023-04-29T10:38:16;7.15;;;5.28;;
52124;SDS011;38119;52.710;6.398;2023-04-29T10:40:46;9.95;;;5.70;;
52124;SDS011;38119;52.710;6.398;2023-04-29T10:43:13;8.25;;;5.45;;
52124;SDS011;38119;52.710;6.398;2023-04-29T10:45:39;8.45;;;5.07;;
52124;SDS011;38119;52.710;6.398;2023-04-29T10:48:11;9.63;;;5.43;;
52124;SDS011;38119;52.710;6.398;2023-04-29T10:53:16;10.02;;;5.35;;
52124;SDS011;38119;52.710;6.398;2023-04-29T10:55:47;9.27;;;6.00;;
52124;SDS011;38119;52.710;6.398;2023-04-29T11:01:04;8.25;;;5.50;;
52124;SDS011;38119;52.710;6.398;2023-04-29T11:03:44;8.63;;;4.60;;
52124;SDS011;38119;52.710;6.398;2023-04-29T11:06:19;9.48;;;5.15;;
52124;SDS011;38119;52.710;6.398;2023-04-29T11:08:59;8.15;;;5.20;;
52124;SDS011;38119;52.710;6.398;2023-04-29T11:11:46;12.15;;;6.00;;
52124;SDS011;38119;52.710;6.398;2023-04-29T11:14:13;11.65;;;6.63;;
52124;SDS011;38119;52.710;6.398;2023-04-29T11:16:49;9.93;;;5.65;;
52124;SDS011;38119;52.710;6.398;2023-04-29T11:19:16;8.02;;;5.15;;
52124;SDS011;38119;52.710;6.398;2023-04-29T11:21:43;10.27;;;4.90;;
52124;SDS011;38119;52.710;6.398;2023-04-29T11:24:11;6.30;;;4.30;;
52124;SDS011;38119;52.710;6.398;2023-04-29T11:26:39;8.00;;;4.47;;
52124;SDS011;38119;52.710;6.398;2023-04-29T11:29:05;7.10;;;4.60;;
52124;SDS011;38119;52.710;6.398;2023-04-29T11:31:34;9.43;;;4.35;;
52124;SDS011;38119;52.710;6.398;2023-04-29T11:34:02;8.40;;;4.38;;
52124;SDS011;38119;52.710;6.398;2023-04-29T11:36:28;8.07;;;4.45;;
52124;SDS011;38119;52.710;6.398;2023-04-29T11:38:56;8.93;;;4.53;;
52124;SDS011;38119;52.710;6.398;2023-04-29T11:41:24;6.35;;;3.80;;
52124;SDS011;38119;52.710;6.398;2023-04-29T11:43:54;7.68;;;3.83;;
52124;SDS011;38119;52.710;6.398;2023-04-29T11:46:21;8.25;;;4.40;;
52124;SDS011;38119;52.710;6.398;2023-04-29T11:48:47;7.30;;;3.83;;
52124;SDS011;38119;52.710;6.398;2023-04-29T11:51:14;7.75;;;3.85;;
52124;SDS011;38119;52.710;6.398;2023-04-29T11:53:41;5.80;;;3.58;;
52124;SDS011;38119;52.710;6.398;2023-04-29T11:56:07;5.82;;;3.50;;
52124;SDS011;38119;52.710;6.398;2023-04-29T11:58:34;7.13;;;3.70;;
52124;SDS011;38119;52.710;6.398;2023-04-29T12:01:00;6.68;;;3.95;;
52124;SDS011;38119;52.710;6.398;2023-04-29T12:03:28;5.95;;;3.60;;
52124;SDS011;38119;52.710;6.398;2023-04-29T12:05:55;8.55;;;3.85;;
52124;SDS011;38119;52.710;6.398;2023-04-29T12:08:22;6.10;;;3.97;;
52124;SDS011;38119;52.710;6.398;2023-04-29T12:10:49;6.05;;;3.92;;
52124;SDS011;38119;52.710;6.398;2023-04-29T12:13:16;7.13;;;3.58;;
52124;SDS011;38119;52.710;6.398;2023-04-29T12:15:43;5.55;;;3.60;;
52124;SDS011;38119;52.710;6.398;2023-04-29T12:18:10;7.05;;;3.80;;
52124;SDS011;38119;52.710;6.398;2023-04-29T12:20:36;8.70;;;3.63;;
52124;SDS011;38119;52.710;6.398;2023-04-29T12:23:12;8.55;;;3.88;;
52124;SDS011;38119;52.710;6.398;2023-04-29T12:25:47;6.50;;;4.00;;
52124;SDS011;38119;52.710;6.398;2023-04-29T12:28:18;8.73;;;3.60;;
52124;SDS011;38119;52.710;6.398;2023-04-29T12:30:44;5.50;;;3.58;;
52124;SDS011;38119;52.710;6.398;2023-04-29T12:33:18;8.25;;;3.88;;
52124;SDS011;38119;52.710;6.398;2023-04-29T12:35:51;6.07;;;3.80;;
52124;SDS011;38119;52.710;6.398;2023-04-29T12:38:25;18.98;;;4.68;;
52124;SDS011;38119;52.710;6.398;2023-04-29T12:40:53;163.80;;;12.95;;
52124;SDS011;38119;52.710;6.398;2023-04-29T12:43:24;24.70;;;5.25;;
52124;SDS011;38119;52.710;6.398;2023-04-29T12:45:53;12.73;;;4.20;;
52124;SDS011;38119;52.710;6.398;2023-04-29T12:48:28;9.20;;;3.67;;
52124;SDS011;38119;52.710;6.398;2023-04-29T12:50:57;9.30;;;4.70;;
52124;SDS011;38119;52.710;6.398;2023-04-29T12:53:26;8.55;;;4.47;;
52124;SDS011;38119;52.710;6.398;2023-04-29T12:55:53;6.40;;;3.80;;
52124;SDS011;38119;52.710;6.398;2023-04-29T12:58:19;7.35;;;3.70;;
52124;SDS011;38119;52.710;6.398;2023-04-29T13:00:45;7.20;;;4.22;;
52124;SDS011;38119;52.710;6.398;2023-04-29T13:03:10;13.63;;;4.00;;
52124;SDS011;38119;52.710;6.398;2023-04-29T13:05:36;8.00;;;3.70;;
52124;SDS011;38119;52.710;6.398;2023-04-29T13:08:02;9.73;;;4.28;;
52124;SDS011;38119;52.710;6.398;2023-04-29T13:10:30;8.38;;;4.10;;
52124;SDS011;38119;52.710;6.398;2023-04-29T13:12:57;5.30;;;3.20;;
52124;SDS011;38119;52.710;6.398;2023-04-29T13:15:23;6.15;;;3.78;;
52124;SDS011;38119;52.710;6.398;2023-04-29T13:17:49;5.65;;;3.28;;
52124;SDS011;38119;52.710;6.398;2023-04-29T13:20:15;7.88;;;3.17;;
52124;SDS011;38119;52.710;6.398;2023-04-29T13:22:41;8.23;;;3.80;;
52124;SDS011;38119;52.710;6.398;2023-04-29T13:25:08;7.22;;;3.50;;
52124;SDS011;38119;52.710;6.398;2023-04-29T13:27:34;10.55;;;3.50;;
52124;SDS011;38119;52.710;6.398;2023-04-29T13:30:00;6.60;;;3.20;;
52124;SDS011;38119;52.710;6.398;2023-04-29T13:32:26;7.03;;;3.47;;
52124;SDS011;38119;52.710;6.398;2023-04-29T13:34:51;6.63;;;2.67;;
52124;SDS011;38119;52.710;6.398;2023-04-29T13:37:17;5.07;;;2.67;;
52124;SDS011;38119;52.710;6.398;2023-04-29T13:39:44;6.82;;;3.30;;
52124;SDS011;38119;52.710;6.398;2023-04-29T13:42:10;4.57;;;2.97;;
52124;SDS011;38119;52.710;6.398;2023-04-29T13:44:35;8.30;;;2.78;;
52124;SDS011;38119;52.710;6.398;2023-04-29T13:47:01;5.63;;;2.38;;
52124;SDS011;38119;52.710;6.398;2023-04-29T13:49:28;5.88;;;2.70;;
52124;SDS011;38119;52.710;6.398;2023-04-29T13:51:53;5.50;;;2.50;;
52124;SDS011;38119;52.710;6.398;2023-04-29T13:54:19;5.25;;;2.20;;
52124;SDS011;38119;52.710;6.398;2023-04-29T13:56:45;7.20;;;2.78;;
52124;SDS011;38119;52.710;6.398;2023-04-29T13:59:12;5.20;;;2.70;;
52124;SDS011;38119;52.710;6.398;2023-04-29T14:01:37;4.10;;;2.75;;
52124;SDS011;38119;52.710;6.398;2023-04-29T14:04:03;4.07;;;2.42;;
52124;SDS011;38119;52.710;6.398;2023-04-29T14:06:29;5.57;;;2.50;;
52124;SDS011;38119;52.710;6.398;2023-04-29T14:08:56;4.65;;;2.35;;
52124;SDS011;38119;52.710;6.398;2023-04-29T14:11:22;5.15;;;2.80;;
52124;SDS011;38119;52.710;6.398;2023-04-29T14:13:48;6.10;;;2.58;;
52124;SDS011;38119;52.710;6.398;2023-04-29T14:16:14;6.45;;;2.83;;
52124;SDS011;38119;52.710;6.398;2023-04-29T14:18:39;2.67;;;2.25;;
52124;SDS011;38119;52.710;6.398;2023-04-29T14:21:05;4.70;;;2.13;;
52124;SDS011;38119;52.710;6.398;2023-04-29T14:23:30;4.47;;;2.10;;
52124;SDS011;38119;52.710;6.398;2023-04-29T14:25:56;4.63;;;2.40;;
52124;SDS011;38119;52.710;6.398;2023-04-29T14:28:22;5.20;;;2.30;;
52124;SDS011;38119;52.710;6.398;2023-04-29T14:30:47;3.83;;;2.17;;
52124;SDS011;38119;52.710;6.398;2023-04-29T14:33:13;4.35;;;1.85;;
52124;SDS011;38119;52.710;6.398;2023-04-29T14:35:38;2.63;;;1.60;;
52124;SDS011;38119;52.710;6.398;2023-04-29T14:38:05;4.43;;;1.55;;
52124;SDS011;38119;52.710;6.398;2023-04-29T14:40:30;3.72;;;1.80;;
52124;SDS011;38119;52.710;6.398;2023-04-29T14:42:56;3.35;;;1.90;;
52124;SDS011;38119;52.710;6.398;2023-04-29T14:45:21;3.95;;;1.80;;
52124;SDS011;38119;52.710;6.398;2023-04-29T14:47:47;3.88;;;1.70;;
52124;SDS011;38119;52.710;6.398;2023-04-29T14:50:12;2.65;;;1.42;;
52124;SDS011;38119;52.710;6.398;2023-04-29T14:52:38;5.07;;;1.83;;
52124;SDS011;38119;52.710;6.398;2023-04-29T14:55:04;4.25;;;1.90;;